Time;durP1;ratioP1;P1;durP2;ratioP2;P2;SDS_P1;SDS_P2;PMS_P1;PMS_P2;Temp;Humidity;BMP_temperature;BMP_pressure;BME280_temperature;BME280_humidity;BME280_pressure;Samples;Min_cycle;Max_cycle;Signal;HPM_P1;HPM_P2
2022/10/31 00:02:08;;;;;;;38.42;22.90;;;12.40;99.90;;;;;;6229548;22;20016;-85
2022/10/31 00:04:33;;;;;;;40.92;22.63;;;12.40;99.90;;;;;;6228436;22;20532;-86
2022/10/31 00:06:59;;;;;;;40.38;21.98;;;12.30;99.90;;;;;;6228901;22;20019;-86
2022/10/31 00:09:28;;;;;;;44.97;23.17;;;12.30;99.90;;;;;;6253561;22;20011;-86
2022/10/31 00:11:53;;;;;;;45.28;22.55;;;12.40;99.90;;;;;;6227851;22;20306;-86
2022/10/31 00:14:19;;;;;;;42.72;22.92;;;12.40;99.90;;;;;;6228213;22;20031;-85
2022/10/31 00:16:45;;;;;;;44.30;22.13;;;12.20;99.90;;;;;;6228943;22;20027;-86
2022/10/31 00:19:10;;;;;;;42.50;23.05;;;12.30;99.90;;;;;;6254868;22;20718;-85
2022/10/31 00:21:39;;;;;;;42.88;22.17;;;12.30;99.90;;;;;;6229156;22;20016;-86
2022/10/31 00:24:07;;;;;;;45.95;23.67;;;12.30;99.90;;;;;;6227137;22;20015;-86
2022/10/31 00:26:33;;;;;;;43.95;23.10;;;12.20;99.90;;;;;;6226093;22;20012;-85
2022/10/31 00:29:00;;;;;;;40.53;21.95;;;12.20;99.90;;;;;;6203386;22;20068;-85
2022/10/31 00:31:25;;;;;;;48.92;24.52;;;12.20;99.90;;;;;;6204264;22;20587;-86
2022/10/31 00:33:51;;;;;;;57.20;24.83;;;12.20;99.90;;;;;;6255653;22;20132;-85
2022/10/31 00:36:18;;;;;;;61.08;25.52;;;12.20;99.90;;;;;;6255253;22;20012;-86
2022/10/31 00:38:46;;;;;;;49.03;25.05;;;12.20;99.90;;;;;;6230413;22;20098;-86
2022/10/31 00:41:12;;;;;;;49.65;24.90;;;12.20;99.90;;;;;;6203998;22;20039;-87
2022/10/31 00:43:38;;;;;;;53.67;25.88;;;12.20;99.90;;;;;;6203037;22;20015;-86
2022/10/31 00:46:04;;;;;;;47.70;25.42;;;12.10;99.90;;;;;;6230378;22;20019;-86
2022/10/31 00:48:30;;;;;;;49.95;24.88;;;12.20;99.90;;;;;;6230449;22;20018;-86
2022/10/31 00:50:56;;;;;;;52.60;25.08;;;12.20;99.90;;;;;;6204506;22;20051;-86
2022/10/31 00:53:21;;;;;;;51.20;25.35;;;12.10;99.90;;;;;;6199427;23;20024;-85
2022/10/31 00:55:47;;;;;;;48.80;24.58;;;12.30;99.90;;;;;;6198693;22;20077;-86
2022/10/31 00:58:13;;;;;;;54.03;26.25;;;12.30;99.90;;;;;;6223522;22;20038;-86
2022/10/31 01:00:39;;;;;;;54.80;25.85;;;12.20;99.90;;;;;;6200081;22;20027;-86
2022/10/31 01:03:05;;;;;;;55.38;25.17;;;12.10;99.90;;;;;;6225209;23;20016;-86
2022/10/31 01:05:31;;;;;;;45.53;24.38;;;12.20;99.90;;;;;;6225129;23;20017;-86
2022/10/31 01:07:57;;;;;;;57.75;26.58;;;12.20;99.90;;;;;;6200440;22;20492;-85
2022/10/31 01:10:22;;;;;;;53.03;25.23;;;12.20;99.90;;;;;;6199016;22;20044;-86
2022/10/31 01:12:49;;;;;;;47.65;24.63;;;12.10;99.90;;;;;;6223416;22;20019;-86
2022/10/31 01:15:19;;;;;;;43.92;24.50;;;12.20;99.90;;;;;;6224146;23;20046;-87
2022/10/31 01:17:46;;;;;;;53.42;25.55;;;12.30;99.90;;;;;;6198822;22;20020;-86
2022/10/31 01:20:13;;;;;;;50.25;24.67;;;12.20;99.90;;;;;;6199271;22;20012;-85
2022/10/31 01:22:39;;;;;;;49.22;24.58;;;12.20;99.90;;;;;;6199220;22;20027;-86
2022/10/31 01:25:11;;;;;;;44.65;23.45;;;12.20;99.90;;;;;;6199763;23;20013;-86
2022/10/31 01:27:36;;;;;;;49.13;23.40;;;12.30;99.90;;;;;;6222484;22;20012;-86
2022/10/31 01:30:03;;;;;;;43.40;22.35;;;12.30;99.90;;;;;;6225005;22;20366;-86
2022/10/31 01:32:29;;;;;;;43.33;24.40;;;12.30;99.90;;;;;;6200220;22;20111;-86
2022/10/31 01:34:55;;;;;;;44.85;22.60;;;12.30;99.90;;;;;;6200009;22;20206;-86
2022/10/31 01:37:21;;;;;;;40.25;21.05;;;12.40;99.90;;;;;;6199788;22;20675;-86
2022/10/31 01:39:51;;;;;;;42.97;21.92;;;12.30;99.90;;;;;;6200519;22;20073;-85
2022/10/31 01:42:22;;;;;;;37.80;20.80;;;12.30;99.90;;;;;;6198917;22;20289;-86
2022/10/31 01:44:57;;;;;;;36.20;20.45;;;12.30;99.90;;;;;;6201378;22;20051;-86
2022/10/31 01:47:33;;;;;;;34.60;20.38;;;12.30;99.90;;;;;;6200847;22;20012;-86
2022/10/31 01:50:02;;;;;;;39.42;19.98;;;12.30;99.90;;;;;;6225854;23;20016;-86
2022/10/31 01:52:39;;;;;;;42.30;20.98;;;12.20;99.90;;;;;;6199791;22;20391;-86
2022/10/31 01:55:10;;;;;;;37.90;19.73;;;12.20;99.90;;;;;;6224690;23;20534;-86
2022/10/31 01:57:44;;;;;;;36.88;20.92;;;12.10;99.90;;;;;;6222891;23;20081;-87
2022/10/31 02:00:11;;;;;;;34.97;18.80;;;12.10;99.90;;;;;;6200343;22;20015;-86
2022/10/31 02:02:55;;;;;;;33.92;19.80;;;12.20;99.90;;;;;;6224630;23;20469;-85
2022/10/31 02:05:25;;;;;;;34.50;19.08;;;12.00;99.90;;;;;;6200293;22;20035;-86
2022/10/31 02:07:56;;;;;;;37.53;19.85;;;12.10;99.90;;;;;;6199545;22;20535;-86
2022/10/31 02:10:23;;;;;;;37.60;19.42;;;12.00;99.90;;;;;;6198168;22;20465;-85
2022/10/31 02:12:53;;;;;;;34.17;20.88;;;12.00;99.90;;;;;;6198159;22;20406;-86
2022/10/31 02:15:19;;;;;;;38.05;21.23;;;12.00;99.90;;;;;;6198356;22;20262;-86
2022/10/31 02:17:45;;;;;;;37.35;21.73;;;12.10;99.90;;;;;;6199339;22;20015;-86
2022/10/31 02:20:22;;;;;;;42.65;22.13;;;12.00;99.90;;;;;;6198593;22;20329;-85
2022/10/31 02:23:14;;;;;;;35.40;20.83;;;12.00;99.90;;;;;;6198219;22;20016;-86
2022/10/31 02:25:58;;;;;;;44.42;22.17;;;12.00;99.90;;;;;;6197983;22;20095;-86
2022/10/31 02:28:44;;;;;;;40.70;22.05;;;11.90;99.90;;;;;;6222501;22;20012;-86
2022/10/31 02:31:31;;;;;;;36.92;21.02;;;11.90;99.90;;;;;;6224996;22;20211;-85
2022/10/31 02:34:21;;;;;;;42.78;22.35;;;11.90;99.90;;;;;;6199443;22;20539;-86
2022/10/31 02:36:55;;;;;;;42.03;23.42;;;11.90;99.90;;;;;;6198632;23;20467;-85
2022/10/31 02:39:21;;;;;;;43.63;23.37;;;11.80;99.90;;;;;;6198951;22;20027;-85
2022/10/31 02:41:56;;;;;;;40.15;24.00;;;11.90;99.90;;;;;;6198819;22;20020;-86
2022/10/31 02:44:59;;;;;;;41.97;22.95;;;11.90;99.90;;;;;;6198784;22;20323;-86
2022/10/31 02:47:32;;;;;;;43.65;23.90;;;11.80;99.90;;;;;;6226077;22;20088;-86
2022/10/31 02:50:15;;;;;;;43.47;23.33;;;11.70;99.90;;;;;;6200155;23;20012;-87
2022/10/31 02:52:41;;;;;;;48.40;22.83;;;11.70;99.90;;;;;;6198533;22;20479;-86
2022/10/31 02:55:11;;;;;;;44.75;24.15;;;11.80;99.90;;;;;;6199953;22;20020;-86
2022/10/31 02:57:39;;;;;;;47.33;24.10;;;11.70;99.90;;;;;;6198004;22;20027;-85
2022/10/31 03:00:07;;;;;;;45.92;24.65;;;11.70;99.90;;;;;;6199358;22;20012;-86
2022/10/31 03:02:51;;;;;;;44.83;24.23;;;11.60;99.90;;;;;;6199661;22;20527;-85
2022/10/31 03:05:32;;;;;;;47.70;23.90;;;11.60;99.90;;;;;;6199400;22;20012;-85
2022/10/31 03:08:22;;;;;;;41.78;22.63;;;11.60;99.90;;;;;;6224614;23;20016;-86
2022/10/31 03:10:55;;;;;;;44.95;23.10;;;11.50;99.90;;;;;;6222655;23;20302;-86
2022/10/31 03:13:44;;;;;;;43.83;23.85;;;11.50;99.90;;;;;;6223189;23;20016;-85
2022/10/31 03:16:17;;;;;;;43.90;24.70;;;11.50;99.90;;;;;;6198717;22;20420;-85
2022/10/31 03:19:05;;;;;;;46.50;22.92;;;11.50;99.90;;;;;;6199043;22;20019;-86
2022/10/31 03:21:43;;;;;;;46.70;25.55;;;11.50;99.90;;;;;;6199180;22;20023;-86
2022/10/31 03:24:11;;;;;;;44.55;25.45;;;11.50;99.90;;;;;;6224538;23;20420;-86
2022/10/31 03:26:52;;;;;;;43.30;24.75;;;11.40;99.90;;;;;;6249366;22;20111;-86
2022/10/31 03:29:22;;;;;;;52.80;25.67;;;11.40;99.90;;;;;;6198943;22;20016;-86
2022/10/31 03:31:54;;;;;;;45.42;24.58;;;11.40;99.90;;;;;;6199974;22;20052;-87
2022/10/31 03:34:20;;;;;;;45.63;23.77;;;11.20;99.90;;;;;;6200190;22;20017;-86
2022/10/31 03:36:51;;;;;;;44.65;25.45;;;11.30;99.90;;;;;;6198851;22;20381;-86
2022/10/31 03:39:20;;;;;;;46.92;25.15;;;11.20;99.90;;;;;;6223059;23;20012;-86
2022/10/31 03:41:54;;;;;;;47.83;24.65;;;11.20;99.90;;;;;;6197722;23;20020;-87
2022/10/31 03:44:22;;;;;;;41.00;23.73;;;11.10;99.90;;;;;;6198932;22;20017;-87
2022/10/31 03:46:48;;;;;;;44.47;26.73;;;11.20;99.90;;;;;;6224084;23;20243;-87
2022/10/31 03:49:15;;;;;;;51.53;26.88;;;11.20;99.90;;;;;;6199435;22;20066;-86
2022/10/31 03:52:12;;;;;;;47.95;26.08;;;11.10;99.90;;;;;;6203483;22;20016;-86
2022/10/31 03:54:50;;;;;;;95.25;29.88;;;11.10;99.90;;;;;;6205163;22;20433;-86
2022/10/31 03:57:27;;;;;;;49.97;26.35;;;11.00;99.90;;;;;;6203141;22;20011;-86
2022/10/31 04:00:03;;;;;;;54.72;27.20;;;10.90;99.90;;;;;;6205137;22;20215;-86
2022/10/31 04:02:32;;;;;;;52.58;25.08;;;10.90;99.90;;;;;;6204555;22;20024;-87
2022/10/31 04:04:59;;;;;;;46.55;24.13;;;10.80;99.90;;;;;;6203743;22;20470;-86
2022/10/31 04:07:29;;;;;;;44.53;23.83;;;10.80;99.90;;;;;;6204471;22;20015;-85
2022/10/31 04:09:57;;;;;;;44.40;24.73;;;10.70;99.90;;;;;;6203389;22;20050;-87
2022/10/31 04:12:25;;;;;;;47.28;25.05;;;10.80;99.90;;;;;;6229670;22;20030;-86
2022/10/31 04:14:51;;;;;;;41.13;24.48;;;10.70;99.90;;;;;;6204689;22;20027;-85
2022/10/31 04:17:21;;;;;;;43.40;24.80;;;10.70;99.90;;;;;;6256275;22;20385;-86
2022/10/31 04:19:49;;;;;;;39.00;24.80;;;10.70;99.90;;;;;;6207193;22;20486;-86
2022/10/31 04:22:15;;;;;;;45.05;27.65;;;10.70;99.90;;;;;;6231433;22;20051;-86
2022/10/31 04:24:41;;;;;;;45.90;25.08;;;10.70;99.90;;;;;;6232151;22;20348;-87
2022/10/31 04:27:07;;;;;;;43.72;25.60;;;10.80;99.90;;;;;;6230063;22;20027;-86
2022/10/31 04:29:33;;;;;;;45.22;26.15;;;10.80;99.90;;;;;;6203889;22;20334;-85
2022/10/31 04:31:58;;;;;;;44.20;25.40;;;10.70;99.90;;;;;;6231264;22;20023;-85
2022/10/31 04:34:24;;;;;;;55.00;28.17;;;10.80;99.90;;;;;;6230675;22;20495;-86
2022/10/31 04:36:49;;;;;;;77.57;31.05;;;10.70;99.90;;;;;;6231292;22;20016;-85
2022/10/31 04:39:18;;;;;;;46.00;26.25;;;10.60;99.90;;;;;;6231472;22;20019;-85
2022/10/31 04:41:44;;;;;;;46.47;27.55;;;10.60;99.90;;;;;;6230022;22;20344;-86
2022/10/31 04:44:10;;;;;;;51.08;26.63;;;10.50;99.90;;;;;;6230944;22;20027;-85
2022/10/31 04:46:35;;;;;;;843.40;53.42;;;10.50;99.90;;;;;;6231780;22;20027;-85
2022/10/31 04:49:01;;;;;;;55.83;24.85;;;10.40;99.90;;;;;;6207562;22;20377;-86
2022/10/31 04:51:27;;;;;;;145.75;31.00;;;10.50;99.90;;;;;;6207017;22;20012;-86
2022/10/31 04:53:52;;;;;;;40.55;23.75;;;10.50;99.90;;;;;;6231952;22;20020;-85
2022/10/31 04:56:18;;;;;;;43.80;24.35;;;10.40;99.90;;;;;;6204848;22;20016;-86
2022/10/31 04:58:43;;;;;;;40.63;25.08;;;10.30;99.90;;;;;;6230520;22;20051;-85
2022/10/31 05:01:09;;;;;;;55.08;26.88;;;10.30;99.90;;;;;;6231318;22;20019;-86
2022/10/31 05:03:39;;;;;;;41.67;24.55;;;10.30;99.90;;;;;;6207071;22;20568;-86
2022/10/31 05:06:06;;;;;;;44.17;24.95;;;10.20;99.90;;;;;;6232539;22;20090;-86
2022/10/31 05:08:31;;;;;;;47.25;26.90;;;10.20;99.90;;;;;;6207930;22;20012;-85
2022/10/31 05:11:04;;;;;;;52.88;28.20;;;10.20;99.90;;;;;;6256732;22;20011;-85
2022/10/31 05:13:30;;;;;;;45.00;26.25;;;10.20;99.90;;;;;;6205076;22;20011;-86
2022/10/31 05:15:58;;;;;;;40.13;23.33;;;10.10;99.90;;;;;;6204867;22;20012;-86
2022/10/31 05:18:24;;;;;;;40.72;23.55;;;10.10;99.90;;;;;;6254543;22;20322;-86
2022/10/31 05:20:50;;;;;;;44.60;25.23;;;10.10;99.90;;;;;;6205143;22;20197;-86
2022/10/31 05:23:15;;;;;;;57.65;28.48;;;10.10;99.90;;;;;;6229461;22;20098;-86
2022/10/31 05:25:44;;;;;;;51.63;27.70;;;10.10;99.90;;;;;;6227325;22;20365;-86
2022/10/31 05:28:12;;;;;;;52.78;27.02;;;10.10;99.90;;;;;;6229607;22;20019;-87
2022/10/31 05:30:38;;;;;;;46.05;26.30;;;10.00;99.90;;;;;;6229793;22;20016;-85
2022/10/31 05:33:04;;;;;;;45.50;26.23;;;10.10;99.90;;;;;;6229706;22;20056;-85
2022/10/31 05:35:32;;;;;;;40.78;23.58;;;10.10;99.90;;;;;;6229187;22;20092;-86
2022/10/31 05:37:58;;;;;;;40.78;22.83;;;10.10;99.90;;;;;;6204631;22;20107;-86
2022/10/31 05:40:25;;;;;;;47.35;25.70;;;10.00;99.90;;;;;;6204705;22;20755;-85
2022/10/31 05:42:52;;;;;;;41.08;24.13;;;10.00;99.90;;;;;;6203697;22;20026;-86
2022/10/31 05:45:19;;;;;;;58.78;28.80;;;10.00;99.90;;;;;;6206102;22;20279;-85
2022/10/31 05:47:59;;;;;;;44.53;23.55;;;10.00;99.90;;;;;;6205583;22;20484;-86
2022/10/31 05:50:26;;;;;;;45.72;22.42;;;9.90;99.90;;;;;;6205858;22;20100;-85
2022/10/31 05:53:10;;;;;;;50.72;23.15;;;10.00;99.90;;;;;;6230710;22;20050;-86
2022/10/31 05:55:35;;;;;;;42.78;23.60;;;10.00;99.90;;;;;;6229334;22;20016;-85
2022/10/31 05:58:06;;;;;;;47.78;24.20;;;9.90;99.90;;;;;;6253106;22;20067;-86
2022/10/31 06:00:35;;;;;;;36.97;22.85;;;9.90;99.90;;;;;;6205488;22;20083;-85
2022/10/31 06:03:03;;;;;;;40.22;23.60;;;9.90;99.90;;;;;;6229212;22;20026;-85
2022/10/31 06:05:30;;;;;;;40.67;23.40;;;9.80;99.90;;;;;;6204965;22;20030;-86
2022/10/31 06:07:55;;;;;;;48.67;24.33;;;9.90;99.90;;;;;;6203523;22;20016;-86
2022/10/31 06:10:21;;;;;;;43.60;22.83;;;9.80;99.90;;;;;;6227373;22;20015;-86
2022/10/31 06:12:47;;;;;;;42.65;23.05;;;9.80;99.90;;;;;;6229348;22;20444;-85
2022/10/31 06:15:23;;;;;;;47.22;24.20;;;9.80;99.90;;;;;;6204866;22;20020;-87
2022/10/31 06:17:58;;;;;;;38.58;22.70;;;9.80;99.90;;;;;;6202971;22;20061;-86
2022/10/31 06:20:24;;;;;;;38.50;24.15;;;9.80;99.90;;;;;;6204732;22;20016;-86
2022/10/31 06:22:50;;;;;;;34.72;22.17;;;9.80;99.90;;;;;;6228910;22;20023;-85
2022/10/31 06:25:15;;;;;;;50.67;24.83;;;9.80;99.90;;;;;;6229710;22;20019;-87
2022/10/31 06:27:41;;;;;;;48.63;25.38;;;9.80;99.90;;;;;;6252476;22;20424;-86
2022/10/31 06:30:10;;;;;;;40.50;24.13;;;9.80;99.90;;;;;;6230140;22;20043;-86
2022/10/31 06:32:38;;;;;;;54.85;26.75;;;9.80;99.90;;;;;;6205982;22;20019;-86
2022/10/31 06:35:07;;;;;;;45.65;24.30;;;9.80;99.90;;;;;;6231372;22;20026;-85
2022/10/31 06:37:33;;;;;;;49.88;26.15;;;9.80;99.90;;;;;;6231284;22;20019;-86
2022/10/31 06:40:02;;;;;;;37.28;22.17;;;9.80;99.90;;;;;;6229715;22;20065;-86
2022/10/31 06:42:36;;;;;;;39.13;22.70;;;9.80;99.90;;;;;;6228449;22;20459;-86
2022/10/31 06:45:02;;;;;;;42.97;22.73;;;9.70;99.90;;;;;;6230842;22;20015;-87
2022/10/31 06:47:33;;;;;;;35.97;22.58;;;9.80;99.90;;;;;;6230183;22;20339;-86
2022/10/31 06:49:59;;;;;;;44.15;23.95;;;9.80;99.90;;;;;;6256721;22;20063;-86
2022/10/31 06:52:27;;;;;;;33.97;22.05;;;9.80;99.90;;;;;;6230383;22;20027;-87
2022/10/31 06:54:53;;;;;;;44.92;24.35;;;9.80;99.90;;;;;;6228711;22;20293;-87
2022/10/31 06:57:19;;;;;;;49.50;24.67;;;9.90;99.90;;;;;;6228776;22;20038;-86
2022/10/31 06:59:45;;;;;;;49.75;27.08;;;9.90;99.90;;;;;;6231204;22;20340;-85
2022/10/31 07:02:11;;;;;;;47.08;25.58;;;9.90;99.90;;;;;;6230297;22;20016;-87
2022/10/31 07:04:42;;;;;;;39.28;22.60;;;10.00;99.90;;;;;;6205900;22;20012;-86
2022/10/31 07:07:08;;;;;;;44.28;24.45;;;10.00;99.90;;;;;;6230680;22;20079;-85
2022/10/31 07:09:34;;;;;;;43.05;24.52;;;10.00;99.90;;;;;;6228787;22;20086;-86
2022/10/31 07:11:59;;;;;;;48.05;25.40;;;10.00;99.90;;;;;;6229103;22;20016;-87
2022/10/31 07:14:25;;;;;;;42.65;25.33;;;10.00;99.90;;;;;;6228535;22;20016;-86
2022/10/31 07:16:51;;;;;;;50.13;25.65;;;10.10;99.90;;;;;;6230557;22;20015;-86
2022/10/31 07:19:17;;;;;;;50.83;29.75;;;10.10;99.90;;;;;;6229011;22;20102;-87
2022/10/31 07:21:43;;;;;;;48.22;26.63;;;10.10;99.90;;;;;;6204832;22;20018;-86
2022/10/31 07:24:08;;;;;;;38.05;23.77;;;10.20;99.90;;;;;;6230839;22;20583;-86
2022/10/31 07:26:34;;;;;;;42.00;23.25;;;10.20;99.90;;;;;;6224016;22;20023;-86
2022/10/31 07:29:03;;;;;;;38.58;23.02;;;10.20;99.90;;;;;;6226263;22;20019;-87
2022/10/31 07:31:29;;;;;;;42.58;23.08;;;10.20;99.90;;;;;;6256115;22;20016;-86
2022/10/31 07:33:57;;;;;;;40.70;23.27;;;10.30;99.90;;;;;;6230515;22;20027;-85
2022/10/31 07:36:23;;;;;;;39.92;24.20;;;10.30;99.90;;;;;;6230316;22;20031;-86
2022/10/31 07:38:49;;;;;;;33.63;21.75;;;10.30;99.90;;;;;;6229640;22;20195;-86
2022/10/31 07:41:15;;;;;;;33.55;21.45;;;10.30;99.90;;;;;;6205196;22;20117;-85
2022/10/31 07:43:43;;;;;;;33.97;21.17;;;10.30;99.90;;;;;;6255856;22;20024;-86
2022/10/31 07:46:12;;;;;;;40.05;23.85;;;10.40;99.90;;;;;;6234321;22;20042;-86
2022/10/31 07:48:41;;;;;;;38.00;23.75;;;10.60;99.90;;;;;;6231195;22;20318;-86
2022/10/31 07:51:06;;;;;;;40.08;23.35;;;10.60;99.90;;;;;;6231635;22;20071;-86
2022/10/31 07:53:32;;;;;;;34.83;23.05;;;10.70;99.90;;;;;;6206245;22;20098;-85
2022/10/31 07:55:58;;;;;;;41.42;23.98;;;10.80;99.90;;;;;;6254425;22;20020;-86
2022/10/31 07:58:24;;;;;;;39.03;24.48;;;10.90;99.90;;;;;;6229805;22;20242;-86
2022/10/31 08:00:50;;;;;;;38.03;23.75;;;10.90;99.90;;;;;;6231812;22;20015;-86
2022/10/31 08:03:18;;;;;;;41.30;24.65;;;11.00;99.90;;;;;;6255758;22;20058;-86
2022/10/31 08:05:46;;;;;;;41.38;24.02;;;11.10;99.90;;;;;;6207947;22;20464;-86
2022/10/31 08:08:19;;;;;;;37.55;24.08;;;11.10;99.90;;;;;;6232185;22;20040;-86
2022/10/31 08:10:50;;;;;;;37.88;24.58;;;11.10;99.90;;;;;;6204668;22;20389;-86
2022/10/31 08:13:16;;;;;;;37.58;24.98;;;11.20;99.90;;;;;;6256216;22;20060;-85
2022/10/31 08:15:42;;;;;;;46.35;24.42;;;11.30;99.90;;;;;;6232505;22;20088;-86
2022/10/31 08:18:13;;;;;;;39.90;24.50;;;11.30;99.90;;;;;;6231377;22;20012;-85
2022/10/31 08:20:40;;;;;;;34.40;24.30;;;11.50;99.90;;;;;;6206995;22;20479;-86
2022/10/31 08:23:06;;;;;;;37.80;24.52;;;11.50;99.90;;;;;;6207134;22;20020;-86
2022/10/31 08:25:36;;;;;;;34.92;23.60;;;11.70;99.90;;;;;;6205081;22;20016;-86
2022/10/31 08:28:02;;;;;;;34.58;22.77;;;11.70;99.90;;;;;;6204830;22;20352;-86
2022/10/31 08:30:31;;;;;;;35.92;22.67;;;11.80;99.90;;;;;;6231237;22;20012;-85
2022/10/31 08:33:07;;;;;;;31.92;22.55;;;11.90;99.90;;;;;;6206542;22;20076;-86
2022/10/31 08:35:39;;;;;;;42.25;27.13;;;11.90;99.90;;;;;;6202384;22;20076;-86
2022/10/31 08:38:05;;;;;;;34.83;23.48;;;12.00;99.90;;;;;;6203558;22;20055;-85
2022/10/31 08:40:32;;;;;;;31.77;22.42;;;12.10;99.90;;;;;;6230248;22;20451;-85
2022/10/31 08:43:03;;;;;;;32.25;22.90;;;12.20;99.90;;;;;;6204830;22;20347;-86
2022/10/31 08:45:31;;;;;;;32.42;22.45;;;12.20;99.90;;;;;;6205751;22;20028;-86
2022/10/31 08:48:00;;;;;;;32.28;22.20;;;12.20;99.90;;;;;;6205375;22;20014;-85
2022/10/31 08:50:27;;;;;;;34.55;22.58;;;12.30;99.90;;;;;;6205372;22;20012;-86
2022/10/31 08:52:53;;;;;;;30.15;21.65;;;12.20;99.90;;;;;;6205661;22;20016;-86
2022/10/31 08:55:21;;;;;;;33.83;21.60;;;12.30;99.90;;;;;;6229274;22;20483;-86
2022/10/31 08:57:47;;;;;;;29.95;21.30;;;12.30;99.90;;;;;;6228745;22;20019;-86
2022/10/31 09:00:13;;;;;;;30.25;21.20;;;12.30;99.90;;;;;;6231863;22;20386;-86
2022/10/31 09:02:39;;;;;;;28.02;19.55;;;12.40;99.90;;;;;;6255322;22;20148;-86
2022/10/31 09:05:05;;;;;;;31.40;21.58;;;12.40;99.90;;;;;;6231169;22;20015;-86
2022/10/31 09:07:30;;;;;;;32.92;21.08;;;12.50;99.90;;;;;;6230731;22;20388;-86
2022/10/31 09:09:56;;;;;;;29.25;21.15;;;12.50;99.90;;;;;;6230997;22;20068;-85
2022/10/31 09:12:23;;;;;;;26.67;19.55;;;12.70;99.90;;;;;;6229754;22;20012;-86
2022/10/31 09:14:49;;;;;;;28.42;20.15;;;12.80;99.90;;;;;;6229619;22;20711;-86
2022/10/31 09:17:15;;;;;;;27.73;20.25;;;12.80;99.90;;;;;;6257142;22;20228;-86
2022/10/31 09:19:40;;;;;;;26.70;20.13;;;12.80;99.90;;;;;;6256220;22;20059;-84
2022/10/31 09:22:06;;;;;;;26.48;19.75;;;12.80;99.90;;;;;;6231655;22;20054;-85
2022/10/31 09:24:31;;;;;;;26.35;19.92;;;12.80;99.90;;;;;;6256342;22;20242;-86
2022/10/31 09:26:58;;;;;;;25.35;19.15;;;12.90;99.90;;;;;;6230927;22;20018;-86
2022/10/31 09:29:24;;;;;;;27.48;19.17;;;13.00;99.90;;;;;;6230213;22;20007;-86
2022/10/31 09:31:49;;;;;;;27.17;19.45;;;13.20;99.90;;;;;;6255899;22;20040;-85
2022/10/31 09:34:15;;;;;;;27.38;19.38;;;13.10;99.90;;;;;;6262005;22;20110;-86
2022/10/31 09:36:40;;;;;;;24.45;19.10;;;13.20;99.90;;;;;;6262450;22;20015;-85
2022/10/31 09:39:07;;;;;;;24.98;18.90;;;13.20;99.90;;;;;;6262888;22;20329;-86
2022/10/31 09:42:00;;;;;;;25.48;19.92;;;13.20;99.90;;;;;;6236665;22;20011;-85
2022/10/31 09:44:55;;;;;;;28.35;19.35;;;13.20;99.90;;;;;;6208690;22;20434;-86
2022/10/31 09:47:39;;;;;;;24.73;19.33;;;13.30;99.90;;;;;;6227070;22;20022;-85
2022/10/31 09:50:20;;;;;;;22.67;17.98;;;13.20;99.90;;;;;;6206275;22;20403;-85
2022/10/31 09:53:01;;;;;;;25.08;19.17;;;13.20;99.90;;;;;;6206869;22;20189;-85
2022/10/31 09:55:37;;;;;;;25.98;19.65;;;13.20;99.90;;;;;;6203877;22;20020;-86
2022/10/31 09:58:03;;;;;;;25.50;19.88;;;13.10;99.90;;;;;;6205666;22;20072;-85
2022/10/31 10:00:31;;;;;;;26.33;20.23;;;13.20;99.90;;;;;;6204732;22;20071;-85
2022/10/31 10:03:26;;;;;;;28.35;21.15;;;13.20;99.90;;;;;;6229396;22;20413;-85
2022/10/31 10:05:59;;;;;;;29.52;22.08;;;13.30;99.90;;;;;;6205474;22;20016;-85
2022/10/31 10:08:30;;;;;;;31.23;22.75;;;13.40;99.90;;;;;;6205721;22;20459;-85
2022/10/31 10:11:25;;;;;;;35.83;23.73;;;13.50;99.90;;;;;;6203632;22;20015;-85
2022/10/31 10:14:10;;;;;;;;;;;13.50;99.90;;;;;;6204754;22;20008;-86
2022/10/31 10:16:50;;;;;;;32.08;23.02;;;13.60;99.90;;;;;;6204583;22;19915;-85
2022/10/31 10:19:50;;;;;;;31.73;23.17;;;13.80;99.90;;;;;;6230756;22;20019;-85
2022/10/31 10:22:37;;;;;;;35.13;22.60;;;13.80;99.90;;;;;;6231165;22;20019;-85
2022/10/31 10:25:15;;;;;;;32.00;22.38;;;13.70;99.90;;;;;;6204446;22;20016;-85
2022/10/31 10:27:49;;;;;;;30.73;22.38;;;13.60;99.90;;;;;;6204107;22;20077;-86
2022/10/31 10:30:34;;;;;;;30.13;22.08;;;13.60;99.90;;;;;;6205854;22;20012;-85
2022/10/31 10:33:04;;;;;;;;;;;13.70;99.90;;;;;;6205502;22;20016;-86
2022/10/31 10:35:37;;;;;;;27.55;20.35;;;13.80;99.90;;;;;;6206216;22;19915;-86
2022/10/31 10:38:23;;;;;;;26.92;20.48;;;13.90;99.90;;;;;;6231265;22;20021;-85
2022/10/31 10:40:51;;;;;;;25.58;19.60;;;13.90;99.90;;;;;;6201909;22;20016;-86
2022/10/31 10:43:33;;;;;;;30.45;20.38;;;14.00;99.90;;;;;;6204017;22;20094;-85
2022/10/31 10:49:04;;;;;;;30.40;19.88;;;14.20;99.90;;;;;;6231974;22;20019;-85
2022/10/31 10:51:43;;;;;;;26.65;19.10;;;14.30;99.90;;;;;;6205337;22;20012;-84
2022/10/31 10:54:36;;;;;;;25.75;17.80;;;14.50;99.90;;;;;;6230299;22;20134;-85
2022/10/31 10:57:12;;;;;;;24.70;17.77;;;14.60;99.90;;;;;;6205560;22;20358;-85
2022/10/31 10:59:37;;;;;;;24.15;16.60;;;14.70;99.90;;;;;;6230437;22;20015;-85
2022/10/31 11:02:15;;;;;;;20.58;16.08;;;14.70;99.90;;;;;;6231419;22;20458;-85
2022/10/31 11:04:41;;;;;;;20.60;14.68;;;14.90;99.90;;;;;;6204648;22;20016;-85
2022/10/31 11:07:09;;;;;;;20.77;14.60;;;14.90;99.90;;;;;;6231038;22;20007;-84
2022/10/31 11:09:37;;;;;;;17.73;13.68;;;14.90;99.90;;;;;;6205188;22;20012;-86
2022/10/31 11:12:35;;;;;;;18.63;13.57;;;14.90;99.90;;;;;;6203410;22;20011;-84
2022/10/31 11:15:07;;;;;;;17.95;12.52;;;14.80;99.90;;;;;;6273229;22;20012;-85
2022/10/31 11:17:36;;;;;;;16.98;12.52;;;14.70;99.90;;;;;;6205547;22;20011;-85
2022/10/31 11:20:14;;;;;;;15.20;10.90;;;14.80;99.90;;;;;;6205546;22;20399;-84
2022/10/31 11:22:48;;;;;;;16.67;11.65;;;14.80;99.90;;;;;;6206013;22;20020;-84
2022/10/31 11:25:19;;;;;;;15.70;11.60;;;14.80;99.90;;;;;;6230707;22;20019;-85
2022/10/31 11:28:08;;;;;;;16.77;11.23;;;14.80;99.90;;;;;;6205460;22;20500;-85
2022/10/31 11:30:53;;;;;;;15.48;11.00;;;14.80;99.90;;;;;;6229686;22;20015;-84
2022/10/31 11:33:32;;;;;;;15.77;11.20;;;14.80;99.90;;;;;;6205572;22;20461;-85
2022/10/31 11:35:59;;;;;;;14.70;10.48;;;14.90;99.90;;;;;;6203879;22;20353;-85
2022/10/31 11:38:33;;;;;;;16.48;10.48;;;15.00;99.90;;;;;;6230465;22;20058;-85
2022/10/31 11:41:15;;;;;;;14.15;8.77;;;15.10;99.90;;;;;;6203858;22;20126;-85
2022/10/31 11:43:49;;;;;;;13.05;9.48;;;15.20;99.90;;;;;;6226830;22;20038;-84
2022/10/31 11:46:21;;;;;;;13.98;9.32;;;15.30;99.90;;;;;;6204310;22;20018;-85
2022/10/31 11:48:53;;;;;;;10.10;8.27;;;15.50;99.90;;;;;;6204082;22;20671;-85
2022/10/31 11:51:29;;;;;;;14.43;7.68;;;15.60;99.90;;;;;;6204780;22;20064;-85
2022/10/31 11:53:58;;;;;;;12.23;8.32;;;15.60;99.90;;;;;;6203980;22;20031;-85
2022/10/31 11:56:24;;;;;;;11.38;7.47;;;15.80;99.90;;;;;;6227828;22;20277;-85
2022/10/31 11:59:06;;;;;;;11.15;7.05;;;15.80;99.90;;;;;;6228421;22;20468;-85
2022/10/31 12:01:32;;;;;;;14.02;6.78;;;16.00;99.90;;;;;;6204865;22;20012;-85
2022/10/31 12:04:11;;;;;;;10.43;6.72;;;15.90;99.90;;;;;;6204532;22;20008;-85
2022/10/31 12:06:38;;;;;;;10.93;6.80;;;16.10;99.90;;;;;;6204558;22;20054;-84
2022/10/31 12:09:19;;;;;;;11.20;6.45;;;16.10;99.90;;;;;;6204422;22;20015;-85
2022/10/31 12:11:56;;;;;;;11.75;6.80;;;16.10;99.90;;;;;;6203407;22;20016;-85
2022/10/31 12:14:34;;;;;;;12.00;6.53;;;16.20;99.90;;;;;;6202723;22;20016;-85
2022/10/31 12:17:14;;;;;;;12.93;6.75;;;16.20;99.90;;;;;;6204563;22;20102;-85
2022/10/31 12:20:08;;;;;;;10.82;6.22;;;16.30;99.90;;;;;;6204382;22;20019;-85
2022/10/31 12:22:59;;;;;;;10.80;5.95;;;16.40;99.90;;;;;;6203831;22;20016;-85
2022/10/31 12:25:45;;;;;;;9.73;5.72;;;16.30;99.90;;;;;;6202932;22;20023;-85
2022/10/31 12:28:54;;;;;;;10.80;4.05;;;16.30;99.90;;;;;;6204234;22;20095;-85
2022/10/31 12:31:39;;;;;;;7.65;3.70;;;16.20;99.90;;;;;;6204862;22;20194;-85
2022/10/31 12:34:35;;;;;;;9.35;3.80;;;16.30;99.90;;;;;;6230853;22;20023;-85
2022/10/31 12:37:23;;;;;;;8.63;3.95;;;16.20;99.90;;;;;;6204853;22;20024;-85
2022/10/31 12:39:54;;;;;;;8.68;3.42;;;16.20;99.90;;;;;;6228671;22;20016;-83
2022/10/31 12:42:35;;;;;;;9.27;3.50;;;16.20;99.90;;;;;;6204510;22;20227;-84
2022/10/31 12:45:10;;;;;;;9.27;3.17;;;16.30;99.90;;;;;;6204026;22;20270;-85
2022/10/31 12:47:55;;;;;;;6.50;2.88;;;16.40;99.90;;;;;;6230177;22;20079;-85
2022/10/31 12:50:39;;;;;;;5.43;2.70;;;16.30;99.90;;;;;;6230557;22;20131;-85
2022/10/31 12:53:26;;;;;;;9.35;3.47;;;16.50;99.90;;;;;;6204608;22;20012;-84
2022/10/31 12:56:24;;;;;;;5.82;3.03;;;16.30;99.90;;;;;;6228554;22;20681;-85